sensor_id;sensor_type;location;lat;lon;timestamp;temperature;humidity
18434;DHT22;9344;52.294;13.626;2022-09-27T00:01:46;13.60;1.00
18434;DHT22;9344;52.294;13.626;2022-09-27T00:04:14;13.60;1.00
18434;DHT22;9344;52.294;13.626;2022-09-27T00:06:40;13.60;1.00
18434;DHT22;9344;52.294;13.626;2022-09-27T00:09:08;13.50;99.90
18434;DHT22;9344;52.294;13.626;2022-09-27T00:11:37;13.50;1.00
18434;DHT22;9344;52.294;13.626;2022-09-27T00:14:05;15.60;99.90
18434;DHT22;9344;52.294;13.626;2022-09-27T00:16:35;13.60;99.90
18434;DHT22;9344;52.294;13.626;2022-09-27T00:19:05;13.50;99.90
18434;DHT22;9344;52.294;13.626;2022-09-27T00:21:33;13.50;99.90
18434;DHT22;9344;52.294;13.626;2022-09-27T00:24:00;13.60;1.00
18434;DHT22;9344;52.294;13.626;2022-09-27T00:26:27;13.50;1.00
18434;DHT22;9344;52.294;13.626;2022-09-27T00:28:54;13.50;1.00
18434;DHT22;9344;52.294;13.626;2022-09-27T00:31:22;13.50;1.00
18434;DHT22;9344;52.294;13.626;2022-09-27T00:33:50;13.50;99.90
18434;DHT22;9344;52.294;13.626;2022-09-27T00:36:18;13.50;99.90
18434;DHT22;9344;52.294;13.626;2022-09-27T00:38:46;13.50;99.90
18434;DHT22;9344;52.294;13.626;2022-09-27T00:41:14;13.50;99.90
18434;DHT22;9344;52.294;13.626;2022-09-27T00:43:44;13.40;1.00
18434;DHT22;9344;52.294;13.626;2022-09-27T00:46:12;13.40;1.00
18434;DHT22;9344;52.294;13.626;2022-09-27T00:48:40;13.50;99.90
18434;DHT22;9344;52.294;13.626;2022-09-27T00:51:07;13.40;1.00
18434;DHT22;9344;52.294;13.626;2022-09-27T00:53:38;13.40;1.00
18434;DHT22;9344;52.294;13.626;2022-09-27T00:56:09;13.40;1.00
18434;DHT22;9344;52.294;13.626;2022-09-27T00:58:40;13.40;1.00
18434;DHT22;9344;52.294;13.626;2022-09-27T01:01:09;13.40;1.00
18434;DHT22;9344;52.294;13.626;2022-09-27T01:03:42;13.40;1.00
18434;DHT22;9344;52.294;13.626;2022-09-27T01:06:11;13.40;1.00
18434;DHT22;9344;52.294;13.626;2022-09-27T01:08:37;13.40;99.90
18434;DHT22;9344;52.294;13.626;2022-09-27T01:11:13;13.40;99.90
18434;DHT22;9344;52.294;13.626;2022-09-27T01:13:55;13.50;99.90
18434;DHT22;9344;52.294;13.626;2022-09-27T01:16:31;13.50;99.90
18434;DHT22;9344;52.294;13.626;2022-09-27T01:19:14;13.50;99.90
18434;DHT22;9344;52.294;13.626;2022-09-27T01:21:47;13.50;99.90
18434;DHT22;9344;52.294;13.626;2022-09-27T01:24:39;13.40;99.90
18434;DHT22;9344;52.294;13.626;2022-09-27T01:27:40;13.50;99.90
18434;DHT22;9344;52.294;13.626;2022-09-27T01:30:24;13.50;1.00
18434;DHT22;9344;52.294;13.626;2022-09-27T01:33:00;13.50;99.90
18434;DHT22;9344;52.294;13.626;2022-09-27T01:35:36;13.50;99.90
18434;DHT22;9344;52.294;13.626;2022-09-27T01:38:12;13.50;99.90
18434;DHT22;9344;52.294;13.626;2022-09-27T01:40:49;13.40;99.90
18434;DHT22;9344;52.294;13.626;2022-09-27T01:43:22;13.50;99.90
18434;DHT22;9344;52.294;13.626;2022-09-27T01:45:53;13.50;99.90
18434;DHT22;9344;52.294;13.626;2022-09-27T01:48:23;13.50;99.90
18434;DHT22;9344;52.294;13.626;2022-09-27T01:50:53;13.50;99.90
18434;DHT22;9344;52.294;13.626;2022-09-27T01:53:24;13.60;99.90
18434;DHT22;9344;52.294;13.626;2022-09-27T01:55:52;13.60;99.90
18434;DHT22;9344;52.294;13.626;2022-09-27T01:58:24;13.60;99.90
18434;DHT22;9344;52.294;13.626;2022-09-27T02:00:54;13.70;99.90
18434;DHT22;9344;52.294;13.626;2022-09-27T02:03:23;13.70;99.90
18434;DHT22;9344;52.294;13.626;2022-09-27T02:05:53;13.70;99.90
18434;DHT22;9344;52.294;13.626;2022-09-27T02:08:26;13.70;99.90
18434;DHT22;9344;52.294;13.626;2022-09-27T02:10:57;13.80;99.90
18434;DHT22;9344;52.294;13.626;2022-09-27T02:13:30;13.70;99.90
18434;DHT22;9344;52.294;13.626;2022-09-27T02:16:04;13.80;99.90
18434;DHT22;9344;52.294;13.626;2022-09-27T02:18:34;13.80;99.90
18434;DHT22;9344;52.294;13.626;2022-09-27T02:21:06;13.70;99.90
18434;DHT22;9344;52.294;13.626;2022-09-27T02:23:37;13.80;99.90
18434;DHT22;9344;52.294;13.626;2022-09-27T02:26:11;13.80;99.90
18434;DHT22;9344;52.294;13.626;2022-09-27T02:28:41;13.90;99.90
18434;DHT22;9344;52.294;13.626;2022-09-27T02:31:11;13.90;99.90
18434;DHT22;9344;52.294;13.626;2022-09-27T02:33:41;13.90;99.90
18434;DHT22;9344;52.294;13.626;2022-09-27T02:36:09;13.90;99.90
18434;DHT22;9344;52.294;13.626;2022-09-27T02:38:36;13.90;99.90
18434;DHT22;9344;52.294;13.626;2022-09-27T02:41:03;13.90;99.90
18434;DHT22;9344;52.294;13.626;2022-09-27T02:43:31;13.90;99.90
18434;DHT22;9344;52.294;13.626;2022-09-27T02:46:08;13.90;99.90
18434;DHT22;9344;52.294;13.626;2022-09-27T02:48:47;13.90;99.90
18434;DHT22;9344;52.294;13.626;2022-09-27T02:51:28;13.90;99.90
18434;DHT22;9344;52.294;13.626;2022-09-27T02:54:06;13.90;99.90
18434;DHT22;9344;52.294;13.626;2022-09-27T02:56:44;13.90;99.90
18434;DHT22;9344;52.294;13.626;2022-09-27T02:59:19;14.00;99.90
18434;DHT22;9344;52.294;13.626;2022-09-27T03:01:56;13.90;99.90
18434;DHT22;9344;52.294;13.626;2022-09-27T03:04:31;14.00;99.90
18434;DHT22;9344;52.294;13.626;2022-09-27T03:07:00;14.00;99.90
18434;DHT22;9344;52.294;13.626;2022-09-27T03:09:29;13.90;99.90
18434;DHT22;9344;52.294;13.626;2022-09-27T03:12:05;13.90;99.90
18434;DHT22;9344;52.294;13.626;2022-09-27T03:14:31;13.90;99.90
18434;DHT22;9344;52.294;13.626;2022-09-27T03:16:58;13.90;99.90
18434;DHT22;9344;52.294;13.626;2022-09-27T03:19:24;13.80;99.90
18434;DHT22;9344;52.294;13.626;2022-09-27T03:21:52;13.80;99.90
18434;DHT22;9344;52.294;13.626;2022-09-27T03:24:19;13.80;99.90
18434;DHT22;9344;52.294;13.626;2022-09-27T03:26:45;13.70;99.90
18434;DHT22;9344;52.294;13.626;2022-09-27T03:29:12;13.80;99.90
18434;DHT22;9344;52.294;13.626;2022-09-27T03:31:39;13.80;99.90
18434;DHT22;9344;52.294;13.626;2022-09-27T03:34:06;13.80;1.00
18434;DHT22;9344;52.294;13.626;2022-09-27T03:36:32;13.80;99.90
18434;DHT22;9344;52.294;13.626;2022-09-27T03:39:00;13.80;99.90
18434;DHT22;9344;52.294;13.626;2022-09-27T03:41:27;13.80;99.90
18434;DHT22;9344;52.294;13.626;2022-09-27T03:43:53;13.80;99.90
18434;DHT22;9344;52.294;13.626;2022-09-27T03:46:22;13.80;1.00
18434;DHT22;9344;52.294;13.626;2022-09-27T03:48:48;13.70;99.90
18434;DHT22;9344;52.294;13.626;2022-09-27T03:51:15;13.70;99.90
18434;DHT22;9344;52.294;13.626;2022-09-27T03:53:41;13.70;99.90
18434;DHT22;9344;52.294;13.626;2022-09-27T03:56:10;13.70;99.90
18434;DHT22;9344;52.294;13.626;2022-09-27T03:58:36;13.80;99.90
18434;DHT22;9344;52.294;13.626;2022-09-27T04:01:03;13.70;99.90
18434;DHT22;9344;52.294;13.626;2022-09-27T04:03:29;13.80;99.90
18434;DHT22;9344;52.294;13.626;2022-09-27T04:05:56;13.70;99.90
18434;DHT22;9344;52.294;13.626;2022-09-27T04:08:24;13.70;99.90
18434;DHT22;9344;52.294;13.626;2022-09-27T04:10:51;13.70;99.90
18434;DHT22;9344;52.294;13.626;2022-09-27T04:13:19;13.70;99.90
18434;DHT22;9344;52.294;13.626;2022-09-27T04:15:45;13.70;99.90
18434;DHT22;9344;52.294;13.626;2022-09-27T04:18:12;13.70;99.90
18434;DHT22;9344;52.294;13.626;2022-09-27T04:20:38;13.60;99.90
18434;DHT22;9344;52.294;13.626;2022-09-27T04:23:05;13.70;99.90
18434;DHT22;9344;52.294;13.626;2022-09-27T04:25:32;13.70;99.90
18434;DHT22;9344;52.294;13.626;2022-09-27T04:27:58;13.60;99.90
18434;DHT22;9344;52.294;13.626;2022-09-27T04:30:27;13.60;99.90
18434;DHT22;9344;52.294;13.626;2022-09-27T04:32:54;13.70;99.90
18434;DHT22;9344;52.294;13.626;2022-09-27T04:35:20;13.60;99.90
18434;DHT22;9344;52.294;13.626;2022-09-27T04:38:05;13.60;99.90
18434;DHT22;9344;52.294;13.626;2022-09-27T04:40:33;13.60;99.90
18434;DHT22;9344;52.294;13.626;2022-09-27T04:43:00;13.60;99.90
18434;DHT22;9344;52.294;13.626;2022-09-27T04:45:29;13.60;99.90
18434;DHT22;9344;52.294;13.626;2022-09-27T04:47:56;13.60;99.90
18434;DHT22;9344;52.294;13.626;2022-09-27T04:50:23;13.60;99.90
18434;DHT22;9344;52.294;13.626;2022-09-27T04:52:50;13.50;99.90
18434;DHT22;9344;52.294;13.626;2022-09-27T04:55:17;13.60;99.90
18434;DHT22;9344;52.294;13.626;2022-09-27T04:57:44;13.60;99.90
18434;DHT22;9344;52.294;13.626;2022-09-27T05:00:12;13.60;99.90
18434;DHT22;9344;52.294;13.626;2022-09-27T05:02:41;13.50;99.90
18434;DHT22;9344;52.294;13.626;2022-09-27T05:05:08;13.50;99.90
18434;DHT22;9344;52.294;13.626;2022-09-27T05:07:34;13.40;99.90
18434;DHT22;9344;52.294;13.626;2022-09-27T05:10:03;13.50;99.90
18434;DHT22;9344;52.294;13.626;2022-09-27T05:12:30;13.50;99.90
18434;DHT22;9344;52.294;13.626;2022-09-27T05:14:57;13.50;99.90
18434;DHT22;9344;52.294;13.626;2022-09-27T05:17:23;13.60;99.90
18434;DHT22;9344;52.294;13.626;2022-09-27T05:19:51;13.60;99.90
18434;DHT22;9344;52.294;13.626;2022-09-27T05:22:18;13.50;99.90
18434;DHT22;9344;52.294;13.626;2022-09-27T05:24:44;13.50;99.90
18434;DHT22;9344;52.294;13.626;2022-09-27T05:27:12;13.50;99.90
18434;DHT22;9344;52.294;13.626;2022-09-27T05:29:42;13.50;99.90
18434;DHT22;9344;52.294;13.626;2022-09-27T05:32:09;13.50;99.90
18434;DHT22;9344;52.294;13.626;2022-09-27T05:34:35;13.50;99.90
18434;DHT22;9344;52.294;13.626;2022-09-27T05:37:05;13.50;99.90
18434;DHT22;9344;52.294;13.626;2022-09-27T05:39:31;13.50;99.90
18434;DHT22;9344;52.294;13.626;2022-09-27T05:41:58;13.40;99.90
18434;DHT22;9344;52.294;13.626;2022-09-27T05:44:27;13.40;99.90
18434;DHT22;9344;52.294;13.626;2022-09-27T05:46:53;13.40;99.90
18434;DHT22;9344;52.294;13.626;2022-09-27T05:49:20;13.40;99.90
18434;DHT22;9344;52.294;13.626;2022-09-27T05:51:46;13.30;99.90
18434;DHT22;9344;52.294;13.626;2022-09-27T05:54:14;13.40;99.90
18434;DHT22;9344;52.294;13.626;2022-09-27T05:56:41;13.40;99.90
18434;DHT22;9344;52.294;13.626;2022-09-27T05:59:07;13.30;99.90
18434;DHT22;9344;52.294;13.626;2022-09-27T06:01:34;13.20;99.90
18434;DHT22;9344;52.294;13.626;2022-09-27T06:04:01;13.20;99.90
18434;DHT22;9344;52.294;13.626;2022-09-27T06:06:29;13.30;99.90
18434;DHT22;9344;52.294;13.626;2022-09-27T06:08:55;13.30;99.90
18434;DHT22;9344;52.294;13.626;2022-09-27T06:11:23;13.30;99.90
18434;DHT22;9344;52.294;13.626;2022-09-27T06:13:51;13.30;99.90
18434;DHT22;9344;52.294;13.626;2022-09-27T06:16:18;13.30;99.90
18434;DHT22;9344;52.294;13.626;2022-09-27T06:18:45;13.20;99.90
18434;DHT22;9344;52.294;13.626;2022-09-27T06:21:11;13.10;99.90
18434;DHT22;9344;52.294;13.626;2022-09-27T06:23:38;13.10;99.90
18434;DHT22;9344;52.294;13.626;2022-09-27T06:26:06;13.10;99.90
18434;DHT22;9344;52.294;13.626;2022-09-27T06:28:34;13.20;99.90
18434;DHT22;9344;52.294;13.626;2022-09-27T06:31:00;13.20;99.90
18434;DHT22;9344;52.294;13.626;2022-09-27T06:33:27;13.20;99.90
18434;DHT22;9344;52.294;13.626;2022-09-27T06:35:54;13.20;99.90
18434;DHT22;9344;52.294;13.626;2022-09-27T06:38:21;13.10;99.90
18434;DHT22;9344;52.294;13.626;2022-09-27T06:40:49;13.20;99.90
18434;DHT22;9344;52.294;13.626;2022-09-27T06:43:17;13.20;99.90
18434;DHT22;9344;52.294;13.626;2022-09-27T06:45:46;13.10;99.90
18434;DHT22;9344;52.294;13.626;2022-09-27T06:48:13;13.10;99.90
18434;DHT22;9344;52.294;13.626;2022-09-27T06:50:42;13.10;99.90
18434;DHT22;9344;52.294;13.626;2022-09-27T06:53:10;13.10;99.90
18434;DHT22;9344;52.294;13.626;2022-09-27T06:55:37;13.10;99.90
18434;DHT22;9344;52.294;13.626;2022-09-27T06:58:05;13.10;99.90
18434;DHT22;9344;52.294;13.626;2022-09-27T07:00:51;13.00;99.90
18434;DHT22;9344;52.294;13.626;2022-09-27T07:03:18;13.10;99.90
18434;DHT22;9344;52.294;13.626;2022-09-27T07:05:53;13.10;99.90
18434;DHT22;9344;52.294;13.626;2022-09-27T07:08:21;13.10;99.90
18434;DHT22;9344;52.294;13.626;2022-09-27T07:10:47;13.10;99.90
18434;DHT22;9344;52.294;13.626;2022-09-27T07:13:15;13.00;99.90
18434;DHT22;9344;52.294;13.626;2022-09-27T07:15:41;13.10;99.90
18434;DHT22;9344;52.294;13.626;2022-09-27T07:18:09;13.20;99.90
18434;DHT22;9344;52.294;13.626;2022-09-27T07:20:36;13.20;99.90
18434;DHT22;9344;52.294;13.626;2022-09-27T07:23:03;13.10;99.90
18434;DHT22;9344;52.294;13.626;2022-09-27T07:25:30;13.10;99.90
18434;DHT22;9344;52.294;13.626;2022-09-27T07:27:59;13.20;99.90
18434;DHT22;9344;52.294;13.626;2022-09-27T07:30:26;13.20;99.90
18434;DHT22;9344;52.294;13.626;2022-09-27T07:32:56;13.20;99.90
18434;DHT22;9344;52.294;13.626;2022-09-27T07:35:25;13.20;99.90
18434;DHT22;9344;52.294;13.626;2022-09-27T07:37:52;13.20;99.90
18434;DHT22;9344;52.294;13.626;2022-09-27T07:40:19;13.20;99.90
18434;DHT22;9344;52.294;13.626;2022-09-27T07:42:45;13.20;99.90
18434;DHT22;9344;52.294;13.626;2022-09-27T07:45:12;13.30;99.90
18434;DHT22;9344;52.294;13.626;2022-09-27T07:47:39;13.30;99.90
18434;DHT22;9344;52.294;13.626;2022-09-27T07:50:08;13.30;99.90
18434;DHT22;9344;52.294;13.626;2022-09-27T07:52:39;13.30;99.90
18434;DHT22;9344;52.294;13.626;2022-09-27T07:55:07;13.30;99.90
18434;DHT22;9344;52.294;13.626;2022-09-27T07:57:35;13.30;99.90
18434;DHT22;9344;52.294;13.626;2022-09-27T08:00:03;13.30;99.90
18434;DHT22;9344;52.294;13.626;2022-09-27T08:02:29;13.30;99.90
18434;DHT22;9344;52.294;13.626;2022-09-27T08:04:57;13.30;99.90
18434;DHT22;9344;52.294;13.626;2022-09-27T08:07:24;13.30;99.90
18434;DHT22;9344;52.294;13.626;2022-09-27T08:09:52;13.30;99.90
18434;DHT22;9344;52.294;13.626;2022-09-27T08:12:18;13.30;99.90
18434;DHT22;9344;52.294;13.626;2022-09-27T08:14:46;13.40;99.90
18434;DHT22;9344;52.294;13.626;2022-09-27T08:17:13;13.40;99.90
18434;DHT22;9344;52.294;13.626;2022-09-27T08:19:40;13.50;99.90
18434;DHT22;9344;52.294;13.626;2022-09-27T08:22:07;13.50;99.90
18434;DHT22;9344;52.294;13.626;2022-09-27T08:24:33;13.70;99.90
18434;DHT22;9344;52.294;13.626;2022-09-27T08:27:02;13.60;99.90
18434;DHT22;9344;52.294;13.626;2022-09-27T08:29:29;13.60;99.90
18434;DHT22;9344;52.294;13.626;2022-09-27T08:31:56;13.60;99.90
18434;DHT22;9344;52.294;13.626;2022-09-27T08:34:23;13.60;99.90
18434;DHT22;9344;52.294;13.626;2022-09-27T08:36:49;13.60;99.90
18434;DHT22;9344;52.294;13.626;2022-09-27T08:39:16;13.60;99.90
18434;DHT22;9344;52.294;13.626;2022-09-27T08:41:46;13.60;99.90
18434;DHT22;9344;52.294;13.626;2022-09-27T08:44:22;13.70;99.90
18434;DHT22;9344;52.294;13.626;2022-09-27T08:46:56;13.70;99.90
18434;DHT22;9344;52.294;13.626;2022-09-27T08:49:29;13.70;99.90
18434;DHT22;9344;52.294;13.626;2022-09-27T08:51:57;13.70;99.90
18434;DHT22;9344;52.294;13.626;2022-09-27T08:54:27;13.60;99.90
18434;DHT22;9344;52.294;13.626;2022-09-27T08:56:59;13.70;99.90
18434;DHT22;9344;52.294;13.626;2022-09-27T08:59:34;13.60;99.90
18434;DHT22;9344;52.294;13.626;2022-09-27T09:02:01;13.70;99.90
18434;DHT22;9344;52.294;13.626;2022-09-27T09:04:34;13.70;99.90
18434;DHT22;9344;52.294;13.626;2022-09-27T09:07:08;13.80;99.90
18434;DHT22;9344;52.294;13.626;2022-09-27T09:09:43;13.80;99.90
18434;DHT22;9344;52.294;13.626;2022-09-27T09:12:24;13.90;99.90
18434;DHT22;9344;52.294;13.626;2022-09-27T09:15:20;14.00;99.90
18434;DHT22;9344;52.294;13.626;2022-09-27T09:18:07;13.90;99.90
18434;DHT22;9344;52.294;13.626;2022-09-27T09:20:50;14.00;99.90
18434;DHT22;9344;52.294;13.626;2022-09-27T09:26:28;13.90;99.90
18434;DHT22;9344;52.294;13.626;2022-09-27T09:29:06;13.90;99.90
18434;DHT22;9344;52.294;13.626;2022-09-27T09:31:40;14.00;99.90
18434;DHT22;9344;52.294;13.626;2022-09-27T09:34:13;14.10;99.90
18434;DHT22;9344;52.294;13.626;2022-09-27T09:36:44;14.20;99.90
18434;DHT22;9344;52.294;13.626;2022-09-27T09:39:16;14.20;99.90
18434;DHT22;9344;52.294;13.626;2022-09-27T09:41:56;14.20;99.90
18434;DHT22;9344;52.294;13.626;2022-09-27T09:44:28;14.30;99.90
18434;DHT22;9344;52.294;13.626;2022-09-27T09:46:59;14.40;99.90
18434;DHT22;9344;52.294;13.626;2022-09-27T09:49:29;14.50;99.90
18434;DHT22;9344;52.294;13.626;2022-09-27T09:52:00;14.50;99.90
18434;DHT22;9344;52.294;13.626;2022-09-27T09:54:31;14.40;99.90
18434;DHT22;9344;52.294;13.626;2022-09-27T09:57:02;14.40;99.90
18434;DHT22;9344;52.294;13.626;2022-09-27T09:59:37;14.40;99.90
18434;DHT22;9344;52.294;13.626;2022-09-27T10:02:20;14.50;99.90
18434;DHT22;9344;52.294;13.626;2022-09-27T10:04:48;14.50;99.90
18434;DHT22;9344;52.294;13.626;2022-09-27T10:07:16;14.40;99.90
18434;DHT22;9344;52.294;13.626;2022-09-27T10:09:44;14.50;99.90
18434;DHT22;9344;52.294;13.626;2022-09-27T10:12:11;14.50;99.90
18434;DHT22;9344;52.294;13.626;2022-09-27T10:14:38;14.40;99.90
18434;DHT22;9344;52.294;13.626;2022-09-27T10:17:11;14.40;99.90
18434;DHT22;9344;52.294;13.626;2022-09-27T10:19:40;14.50;99.90
18434;DHT22;9344;52.294;13.626;2022-09-27T10:22:13;14.60;99.90
18434;DHT22;9344;52.294;13.626;2022-09-27T10:24:53;14.60;99.90
18434;DHT22;9344;52.294;13.626;2022-09-27T10:27:20;14.60;99.90
18434;DHT22;9344;52.294;13.626;2022-09-27T10:29:55;14.70;99.90
18434;DHT22;9344;52.294;13.626;2022-09-27T10:32:26;14.80;99.90
18434;DHT22;9344;52.294;13.626;2022-09-27T10:34:56;14.90;99.90
18434;DHT22;9344;52.294;13.626;2022-09-27T10:37:42;15.10;99.90
18434;DHT22;9344;52.294;13.626;2022-09-27T10:40:28;15.30;99.90
18434;DHT22;9344;52.294;13.626;2022-09-27T10:42:55;15.50;99.90
18434;DHT22;9344;52.294;13.626;2022-09-27T10:45:27;15.60;99.90
18434;DHT22;9344;52.294;13.626;2022-09-27T10:47:56;15.60;99.90
18434;DHT22;9344;52.294;13.626;2022-09-27T10:50:24;15.60;99.90
18434;DHT22;9344;52.294;13.626;2022-09-27T10:53:00;15.70;99.90
18434;DHT22;9344;52.294;13.626;2022-09-27T10:55:31;15.70;99.90
18434;DHT22;9344;52.294;13.626;2022-09-27T10:57:59;15.70;99.90
18434;DHT22;9344;52.294;13.626;2022-09-27T11:00:29;15.70;99.90
18434;DHT22;9344;52.294;13.626;2022-09-27T11:02:59;15.80;99.90
18434;DHT22;9344;52.294;13.626;2022-09-27T11:05:32;15.70;99.90
18434;DHT22;9344;52.294;13.626;2022-09-27T11:08:01;15.90;99.90
18434;DHT22;9344;52.294;13.626;2022-09-27T11:10:30;15.90;99.90
18434;DHT22;9344;52.294;13.626;2022-09-27T11:13:07;16.00;99.90
18434;DHT22;9344;52.294;13.626;2022-09-27T11:15:46;15.90;99.90
18434;DHT22;9344;52.294;13.626;2022-09-27T11:18:23;15.90;99.90
18434;DHT22;9344;52.294;13.626;2022-09-27T11:20:59;15.80;99.90
18434;DHT22;9344;52.294;13.626;2022-09-27T11:23:37;15.90;99.90
18434;DHT22;9344;52.294;13.626;2022-09-27T11:26:15;15.90;99.90
18434;DHT22;9344;52.294;13.626;2022-09-27T11:28:56;16.10;99.90
18434;DHT22;9344;52.294;13.626;2022-09-27T11:31:31;16.10;99.90
18434;DHT22;9344;52.294;13.626;2022-09-27T11:34:22;17.60;99.90
18434;DHT22;9344;52.294;13.626;2022-09-27T11:37:05;16.10;99.90
18434;DHT22;9344;52.294;13.626;2022-09-27T11:39:40;16.00;99.90
18434;DHT22;9344;52.294;13.626;2022-09-27T11:42:40;15.90;99.90
18434;DHT22;9344;52.294;13.626;2022-09-27T11:45:22;15.90;99.90
18434;DHT22;9344;52.294;13.626;2022-09-27T11:47:56;15.80;99.90
18434;DHT22;9344;52.294;13.626;2022-09-27T11:53:47;15.50;99.90
18434;DHT22;9344;52.294;13.626;2022-09-27T11:56:26;15.50;99.90
18434;DHT22;9344;52.294;13.626;2022-09-27T11:59:12;14.90;99.90
18434;DHT22;9344;52.294;13.626;2022-09-27T12:01:47;14.20;99.90
18434;DHT22;9344;52.294;13.626;2022-09-27T12:04:35;13.70;99.90
18434;DHT22;9344;52.294;13.626;2022-09-27T12:07:10;13.40;99.90
18434;DHT22;9344;52.294;13.626;2022-09-27T12:09:43;13.20;99.90
18434;DHT22;9344;52.294;13.626;2022-09-27T12:12:13;13.20;99.90
18434;DHT22;9344;52.294;13.626;2022-09-27T12:14:44;12.90;99.90
18434;DHT22;9344;52.294;13.626;2022-09-27T12:17:14;12.80;99.90
18434;DHT22;9344;52.294;13.626;2022-09-27T12:19:45;12.70;99.90
18434;DHT22;9344;52.294;13.626;2022-09-27T12:22:19;12.70;99.90
18434;DHT22;9344;52.294;13.626;2022-09-27T12:24:47;12.60;99.90
18434;DHT22;9344;52.294;13.626;2022-09-27T12:27:18;12.60;99.90
18434;DHT22;9344;52.294;13.626;2022-09-27T12:29:47;12.70;99.90
18434;DHT22;9344;52.294;13.626;2022-09-27T12:32:17;12.70;99.90
18434;DHT22;9344;52.294;13.626;2022-09-27T12:34:53;12.70;99.90
18434;DHT22;9344;52.294;13.626;2022-09-27T12:37:25;12.80;99.90
18434;DHT22;9344;52.294;13.626;2022-09-27T12:39:56;12.90;99.90
18434;DHT22;9344;52.294;13.626;2022-09-27T12:42:28;13.00;99.90
18434;DHT22;9344;52.294;13.626;2022-09-27T12:44:56;13.10;99.90
18434;DHT22;9344;52.294;13.626;2022-09-27T12:47:35;13.00;99.90
18434;DHT22;9344;52.294;13.626;2022-09-27T12:50:13;13.00;99.90
18434;DHT22;9344;52.294;13.626;2022-09-27T12:52:44;13.00;99.90
18434;DHT22;9344;52.294;13.626;2022-09-27T12:55:28;13.00;99.90
18434;DHT22;9344;52.294;13.626;2022-09-27T12:58:19;13.00;99.90
18434;DHT22;9344;52.294;13.626;2022-09-27T13:00:54;13.10;99.90
18434;DHT22;9344;52.294;13.626;2022-09-27T13:03:39;13.20;99.90
18434;DHT22;9344;52.294;13.626;2022-09-27T13:06:39;13.40;99.90
18434;DHT22;9344;52.294;13.626;2022-09-27T13:09:35;13.40;99.90
18434;DHT22;9344;52.294;13.626;2022-09-27T13:12:11;13.40;99.90
18434;DHT22;9344;52.294;13.626;2022-09-27T13:14:43;13.60;99.90
18434;DHT22;9344;52.294;13.626;2022-09-27T13:17:30;13.60;99.90
18434;DHT22;9344;52.294;13.626;2022-09-27T13:19:57;13.60;99.90
18434;DHT22;9344;52.294;13.626;2022-09-27T13:22:36;13.60;99.90
18434;DHT22;9344;52.294;13.626;2022-09-27T13:28:32;13.80;99.90
18434;DHT22;9344;52.294;13.626;2022-09-27T13:31:01;13.90;99.90
18434;DHT22;9344;52.294;13.626;2022-09-27T13:33:41;13.90;99.90
18434;DHT22;9344;52.294;13.626;2022-09-27T13:36:27;14.00;99.90
18434;DHT22;9344;52.294;13.626;2022-09-27T13:39:15;14.00;99.90
18434;DHT22;9344;52.294;13.626;2022-09-27T13:42:25;13.90;99.90
18434;DHT22;9344;52.294;13.626;2022-09-27T13:45:12;13.80;99.90
18434;DHT22;9344;52.294;13.626;2022-09-27T13:47:46;13.80;99.90
18434;DHT22;9344;52.294;13.626;2022-09-27T13:50:18;13.70;99.90
18434;DHT22;9344;52.294;13.626;2022-09-27T13:52:57;13.60;99.90
18434;DHT22;9344;52.294;13.626;2022-09-27T13:55:44;13.60;99.90
18434;DHT22;9344;52.294;13.626;2022-09-27T13:58:32;13.60;99.90
18434;DHT22;9344;52.294;13.626;2022-09-27T14:01:04;13.60;99.90
18434;DHT22;9344;52.294;13.626;2022-09-27T14:03:35;13.50;99.90
18434;DHT22;9344;52.294;13.626;2022-09-27T14:06:04;13.40;99.90
18434;DHT22;9344;52.294;13.626;2022-09-27T14:08:35;13.50;99.90
18434;DHT22;9344;52.294;13.626;2022-09-27T14:11:04;13.50;99.90
18434;DHT22;9344;52.294;13.626;2022-09-27T14:13:37;13.60;99.90
18434;DHT22;9344;52.294;13.626;2022-09-27T14:16:06;13.60;99.90
18434;DHT22;9344;52.294;13.626;2022-09-27T14:18:42;13.60;99.90
18434;DHT22;9344;52.294;13.626;2022-09-27T14:21:16;13.60;99.90
18434;DHT22;9344;52.294;13.626;2022-09-27T14:23:45;13.70;99.90
18434;DHT22;9344;52.294;13.626;2022-09-27T14:26:21;13.60;99.90
18434;DHT22;9344;52.294;13.626;2022-09-27T14:28:49;13.60;99.90
18434;DHT22;9344;52.294;13.626;2022-09-27T14:31:19;13.60;99.90
18434;DHT22;9344;52.294;13.626;2022-09-27T14:33:47;13.60;99.90
18434;DHT22;9344;52.294;13.626;2022-09-27T14:36:23;13.60;99.90
18434;DHT22;9344;52.294;13.626;2022-09-27T14:39:12;13.60;99.90
18434;DHT22;9344;52.294;13.626;2022-09-27T14:41:40;13.60;99.90
18434;DHT22;9344;52.294;13.626;2022-09-27T14:44:16;13.50;99.90
18434;DHT22;9344;52.294;13.626;2022-09-27T14:46:45;13.50;99.90
18434;DHT22;9344;52.294;13.626;2022-09-27T14:49:18;13.50;99.90
18434;DHT22;9344;52.294;13.626;2022-09-27T14:51:50;13.50;99.90
18434;DHT22;9344;52.294;13.626;2022-09-27T14:54:22;13.50;99.90
18434;DHT22;9344;52.294;13.626;2022-09-27T14:56:51;13.50;99.90
18434;DHT22;9344;52.294;13.626;2022-09-27T14:59:23;13.50;99.90
18434;DHT22;9344;52.294;13.626;2022-09-27T15:01:57;13.40;99.90
18434;DHT22;9344;52.294;13.626;2022-09-27T15:04:26;13.50;99.90
18434;DHT22;9344;52.294;13.626;2022-09-27T15:06:55;12.40;99.90
18434;DHT22;9344;52.294;13.626;2022-09-27T15:09:22;13.40;99.90
18434;DHT22;9344;52.294;13.626;2022-09-27T15:11:53;13.50;99.90
18434;DHT22;9344;52.294;13.626;2022-09-27T15:14:21;13.40;99.90
18434;DHT22;9344;52.294;13.626;2022-09-27T15:16:50;13.40;99.90
18434;DHT22;9344;52.294;13.626;2022-09-27T15:19:23;13.50;99.90
18434;DHT22;9344;52.294;13.626;2022-09-27T15:21:51;13.40;99.90
18434;DHT22;9344;52.294;13.626;2022-09-27T15:24:36;13.40;99.90
18434;DHT22;9344;52.294;13.626;2022-09-27T15:27:10;13.50;99.90
18434;DHT22;9344;52.294;13.626;2022-09-27T15:29:38;13.40;99.90
18434;DHT22;9344;52.294;13.626;2022-09-27T15:32:06;13.40;99.90
18434;DHT22;9344;52.294;13.626;2022-09-27T15:34:38;13.30;99.90
18434;DHT22;9344;52.294;13.626;2022-09-27T15:37:05;13.30;99.90
18434;DHT22;9344;52.294;13.626;2022-09-27T15:39:33;13.30;99.90
18434;DHT22;9344;52.294;13.626;2022-09-27T15:42:07;13.20;99.90
18434;DHT22;9344;52.294;13.626;2022-09-27T15:44:43;13.20;99.90
18434;DHT22;9344;52.294;13.626;2022-09-27T15:47:41;13.20;99.90
18434;DHT22;9344;52.294;13.626;2022-09-27T15:50:34;13.10;99.90
18434;DHT22;9344;52.294;13.626;2022-09-27T15:53:01;13.10;99.90
18434;DHT22;9344;52.294;13.626;2022-09-27T15:55:32;13.20;99.90
18434;DHT22;9344;52.294;13.626;2022-09-27T15:58:00;13.20;99.90
18434;DHT22;9344;52.294;13.626;2022-09-27T16:00:28;13.10;99.90
18434;DHT22;9344;52.294;13.626;2022-09-27T16:02:54;13.10;99.90
18434;DHT22;9344;52.294;13.626;2022-09-27T16:05:22;13.20;99.90
18434;DHT22;9344;52.294;13.626;2022-09-27T16:07:50;13.20;99.90
18434;DHT22;9344;52.294;13.626;2022-09-27T16:10:18;13.20;99.90